Alpha, California Weather observations

Data are for observation ending at time listed.
 Day   Time    Ave.   Ave.  Ave.  Vector   Max.   Stn.    Total    Solar   Ave.   Snow 
  of    of     Air    Rel.  Wind   Wind    Wind   Baro.  Precip.   Rad.    Soil   Depth
Year   Day     Temp.  Hum.  Speed  Dir.    Gust   Pres.                    Temp.       
2015   (PST)    F      %     mph   deg.    mph     mb.     in.     W/m2     F      in. 
---------------------------------------------------------------------------------------  
  89   13:40   58.9    41    2.7   264      7.2   789.4    0.00     534    999.0  161.8
  89   13:50   58.8    41    3.7   256     10.7   789.3    0.00     458    999.0  161.7
  89   14:00   57.9    42    3.3   276      7.4   789.3    0.00     495    999.0  161.6
  89   14:10   58.3    39    4.0   237      9.3   789.2    0.00     451    999.0  161.4
  89   14:20   57.8    42    3.7   249      7.2   789.1    0.00     391    999.0  161.8
  89   14:30   57.0    43    3.2   256      9.5   789.0    0.00     247    999.0  161.9
  89   14:40   56.4    46    3.3   257      8.4   788.9    0.00     370    999.0  162.1
  89   14:50   57.0    47    3.0   252      9.3   788.8    0.00     339    999.0  162.1
  89   15:00   56.6    47    3.3   272      7.3   788.8    0.00     285    999.0  162.1
  89   15:10   54.8    51    3.9   256     10.4   788.7    0.00     198    999.0  162.2
  89   15:20   55.1    51    2.6   257      7.1   788.7    0.00     323    999.0  162.2
  89   15:30   55.9    50    3.7   270      8.4   788.7    0.00     156    999.0  162.2
  89   15:40   55.4    52    2.7   252      9.9   788.7    0.00     108    999.0  162.2
  89   15:50   56.0    49    3.9   236      9.8   788.6    0.00     113    999.0  162.2
  89   16:00   54.8    53    4.0   244      9.0   788.5    0.00     123    999.0  162.2
  89   16:10   54.4    52    3.2   252      8.7   788.4    0.00     176    999.0  162.2
  89   16:20   54.4    52    3.5   236      8.5   788.5    0.00      88    999.0  162.2
  89   16:30   54.2    56    3.5   236      8.7   788.4    0.00      42    999.0  162.2
  89   16:40   53.3    57    3.7   257      8.7   788.4    0.00      30    999.0  162.1
  89   16:50   52.4    60    3.5   253      9.3   788.3    0.00      33    999.0  162.2
  89   17:00   52.5    58    2.9   234      6.4   788.3    0.00      36    999.0  162.2
  89   17:10   52.0    58    2.5   247      7.6   788.3    0.00      24    999.0  162.2
  89   17:20   51.1    60    1.8   244      4.1   788.2    0.00      21    999.0  162.1
  89   17:30   50.5    60    1.7   269      4.3   788.1    0.00      24    999.0   27.5
  89   17:40   49.9    61    1.6   257      5.4   788.1    0.00      23    999.0   13.5
  89   17:50   49.4    63    1.5   265      4.2   788.1    0.00      19    999.0   13.4
  89   18:00   48.6    65    1.3   329      2.8   788.1    0.00      14    999.0   13.4
  89   18:10   47.8    67    1.4   326      3.0   788.1    0.00       8    999.0   13.6
  89   18:20   47.0    68    1.1   321      2.0   788.1    0.00       4    999.0   13.5
  89   18:30   46.3    69    1.1   332      3.3   788.0    0.00       1    999.0   28.0
  89   18:40   45.6    70    1.1   331      2.1   788.0    0.00       0    999.0   13.7
  89   18:50   45.1    71    0.9   326      1.7   788.0    0.00       0    999.0   13.8
  89   19:00   44.8    71    0.7   315      4.5   788.1    0.00       0    999.0   13.9
  89   19:10   45.1    70    2.6   199      5.8   788.0    0.00       0    999.0   13.7
  89   19:20   45.5    69    4.0   185      6.6   788.0    0.00       0    999.0   13.7
  89   19:30   45.7    69    5.0   178      8.2   788.0    0.00       0    999.0   13.6
  89   19:40   45.5    70    3.6   164      7.1   788.1    0.00       0    999.0   13.6
  89   19:50   45.5    70    3.7   164      8.1   788.1    0.00       0    999.0   13.7
  89   20:00   45.6    70    2.5   156      5.1   788.0    0.00       0    999.0   13.6
  89   20:10   45.4    70    2.5   154      4.6   788.0    0.00       0    999.0   13.7
  89   20:20   45.5    67    3.1   155      9.1   788.0    0.00       0    999.0   13.4
  89   20:30   46.0    60    5.0   166      8.8   788.0    0.00       0    999.0   13.6
  89   20:40   46.3    59    5.6   171     10.2   788.0    0.00       0    999.0   13.6
  89   20:50   46.2    58    6.1   177     10.8   788.0    0.00       0    999.0  146.9
  89   21:00   45.6    60    5.8   184      9.9   788.0    0.00       0    999.0  116.4
  89   21:10   45.4    58    5.1   176      8.6   787.9    0.00       0    999.0   28.1
  89   21:20   45.3    56    5.7   182      9.8   787.9    0.00       0    999.0  103.4
  89   21:30   45.6    54    7.8   190     13.2   787.9    0.00       0    999.0  162.3
  89   21:40   45.3    55    6.9   189      9.8   787.9    0.00       0    999.0  162.4
  89   21:50   45.0    56    6.1   194      9.5   787.9    0.00       0    999.0  162.4
  89   22:00   44.9    58    5.5   200      8.6   787.9    0.00       0    999.0  162.3
  89   22:10   44.5    59    3.4   204      6.9   787.9    0.00       0    999.0  161.4
  89   22:20   44.3    59    6.7   195      9.6   787.8    0.00       0    999.0   29.2
  89   22:30   44.3    59    5.6   200      9.2   787.8    0.00       0    999.0  117.5
  89   22:40   44.1    58    4.1   205      7.7   787.7    0.00       0    999.0  162.2
  89   22:50   43.7    58    1.9   231      6.4   787.7    0.00       0    999.0  162.2
  89   23:00   43.6    60    2.1   246      4.8   787.6    0.00       0    999.0   72.5
  89   23:10   43.2    64    2.0   228      5.6   787.6    0.00       0    999.0   13.7
  89   23:20   42.7    67    3.1   209      8.0   787.5    0.00       0    999.0   13.6
  89   23:30   42.6    68    4.6   202      8.0   787.4    0.00       0    999.0   13.7
  89   23:40   42.3    68    3.3   209      6.8   787.4    0.00       0    999.0   13.5
  89   23:50   42.1    68    4.5   201      7.5   787.3    0.00       0    999.0   13.5
  90    0:00   42.3    66    4.0   204      7.4   787.3    0.00       0    999.0   13.4
  90    0:10   42.0    66    4.0   202      7.7   787.3    0.00       0    999.0   13.3
  90    0:20   41.9    65    5.3   202      9.3   787.3    0.00       0    999.0   13.3
  90    0:30   41.9    63    3.4   209      7.4   787.3    0.00       0    999.0   13.3
  90    0:40   41.9    61    3.9   204      7.6   787.3    0.00       0    999.0   13.4
  90    0:50   41.9    62    3.6   206      7.7   787.2    0.00       0    999.0   13.2
  90    1:00   41.7    63    5.8   194      8.7   787.2    0.00       0    999.0   13.3
  90    1:10   41.7    63    6.4   181      9.4   787.0    0.00       0    999.0   13.3
  90    1:20   41.7    61    5.6   174      8.3   786.9    0.00       0    999.0   13.2
  90    1:30   41.7    57    6.9   177     11.2   786.8    0.00       0    999.0  118.0
  90    1:40   41.9    56    7.5   180     11.8   786.7    0.00       0    999.0   57.2
  90    1:50   41.8    53    6.0   171      9.1   786.5    0.00       0    999.0  133.2
  90    2:00   41.9    49    6.6   171     13.1   786.4    0.00       0    999.0  162.4
  90    2:10   41.9    46    5.8   168      9.6   786.3    0.00       0    999.0  162.4
  90    2:20   41.8    43    6.7   179     11.5   786.2    0.00       0    999.0  162.4
  90    2:30   41.5    42    4.9   200      9.6   786.3    0.00       0    999.0  162.1
  90    2:40   41.4    42    7.1   194     11.9   786.2    0.00       0    999.0  162.2
  90    2:50   41.0    45    4.1   203      7.7   786.1    0.00       0    999.0  162.2
  90    3:00   40.7    48    2.9   228      7.3   786.1    0.00       0    999.0  162.3
  90    3:10   40.7    49    3.0   252      7.5   786.0    0.00       0    999.0  162.4
  90    3:20   39.8    51    2.1   277      3.9   786.1    0.00       0    999.0  162.4
  90    3:30   39.2    53    3.1   252      7.0   786.1    0.00       0    999.0  162.4
  90    3:40   39.2    44    4.3   240      9.6   786.1    0.00       0    999.0  162.4
  90    3:50   39.2    37    3.1   238      8.4   786.0    0.00       0    999.0  160.9
  90    4:00   39.2    35    2.5   220      5.6   786.0    0.00       0    999.0   13.7
  90    4:10   39.0    34    4.1   197      8.2   785.8    0.00       0    999.0   13.6
  90    4:20   39.2    32    4.8   175      9.4   785.7    0.00       0    999.0   13.7
  90    4:30   39.0    29    2.8   167      6.1   785.7    0.00       0    999.0   57.0
  90    4:40   38.9    26    3.1   162      7.9   785.6    0.00       0    999.0   13.8
  90    4:50   38.8    25    6.9   183     12.3   785.6    0.00       0    999.0   14.5
  90    5:00   39.6    22    9.5   192     14.8   785.6    0.00       0    999.0   85.0
  90    5:10   40.0    21    8.7   192     12.8   785.6    0.00       0    999.0   13.7
  90    5:20   39.6    22    6.8   190     11.8   785.7    0.00       0    999.0   13.6
  90    5:30   39.1    23    6.4   189      9.8   785.7    0.00       0    999.0   13.7
  90    5:40   38.7    24    4.5   199      8.0   785.7    0.00       0    999.0   13.7
  90    5:50   38.6    24    3.4   207      6.1   785.7    0.00       1    999.0   13.8
  90    6:00   38.8    22    3.3   230      8.8   785.8    0.00       3    999.0   13.9
  90    6:10   39.2    19    3.2   226      8.4   785.8    0.00      16    999.0   13.7
  90    6:20   39.8    19    2.3   220      6.1   785.9    0.00      40    999.0   13.8
  90    6:30   40.3    19    2.2   223      4.5   785.9    0.00      58    999.0   13.6
  90    6:40   40.8    20    1.9   229      4.3   786.0    0.00      72    999.0   13.4
  90    6:50   41.0    20    2.6   220      5.3   786.1    0.00      37    999.0   13.4
  90    7:00   40.9    20    3.8   209      7.7   786.1    0.00      49    999.0   13.6
  90    7:10   40.6    20    2.4   220      5.6   786.2    0.00      50    999.0   13.5
  90    7:20   40.5    20    4.0   200      7.2   786.1    0.00     126    999.0   13.5
  90    7:30   41.1    20    4.0   211      7.5   786.1    0.00     194    999.0   13.5
  90    7:40   41.9    21    2.4   230      6.9   786.2    0.00     220    999.0   13.5
  90    7:50   42.2    22    2.6   238      7.3   786.2    0.00     245    999.0   13.4
  90    8:00   42.1    22    2.9   256      6.9   786.3    0.00     271    999.0   13.5
  90    8:10   41.9    23    2.8   247     11.2   786.4    0.00     296    999.0   13.2
  90    8:20   41.9    24    4.0   228      9.2   786.4    0.00     320    999.0   28.6
  90    8:30   41.7    26    3.5   240      8.3   786.5    0.00     344    999.0  157.8
  90    8:40   41.9    27    3.5   248      7.7   786.6    0.00     366    999.0  159.6
  90    8:50   42.2    28    3.8   233      8.8   786.7    0.00     288    999.0  161.4
  90    9:00   42.9    28    3.4   233      8.6   786.8    0.00     400    999.0  161.4
  90    9:10   43.1    28    4.2   231      9.3   786.8    0.00     223    999.0  161.3
  90    9:20   43.0    30    4.3   239     10.6   786.8    0.00     350    999.0  161.3
  90    9:30   43.5    32    3.0   247      8.8   786.9    0.00     460    999.0  159.7
  90    9:40   43.7    32    4.3   239      9.9   786.9    0.00     480    999.0  158.1
  90    9:50   43.6    34    4.3   258     11.2   786.9    0.00     498    999.0  158.0
  90   10:00   42.8    36    4.3   260      9.4   786.9    0.00     512    999.0   42.4
  90   10:10   44.0    37    4.1   233      9.9   786.9    0.00     526    999.0  130.3
  90   10:20   44.9    38    3.4   252     10.7   786.9    0.00     539    999.0  161.2
  90   10:30   44.2    40    3.5   259      9.9   787.0    0.00     551    999.0  161.4
  90   10:40   43.6    42    4.3   264     10.9   787.0    0.00     562    999.0  162.0
  90   10:50   44.0    44    4.3   251     14.8   787.0    0.00     574    999.0  162.2
  90   11:00   44.4    44    4.5   262      9.9   786.9    0.00     584    999.0  162.2
  90   11:10   44.3    45    4.3   263     13.5   786.9    0.00     593    999.0  162.2
  90   11:20   44.5    46    4.4   265     14.2   786.9    0.00     599    999.0  162.3
  90   11:30   44.6    45    4.4   265     10.9   787.0    0.00     605    999.0  162.3
  90   11:40   45.7    38    4.3   257     14.1   787.0    0.00     612    999.0  162.2
  90   11:50   45.9    32    4.6   269      8.8   787.0    0.00     614    999.0  162.0
  90   12:00   45.9    30    4.2   266     13.4   787.0    0.00     616    999.0   42.3
  90   12:10   46.1    30    4.7   249     14.3   786.9    0.00     614    999.0   13.3
  90   12:20   46.4    28    4.2   256      9.2   786.8    0.00     612    999.0   13.6
  90   12:30   46.5    28    4.3   267     12.1   786.8    0.00     608    999.0   13.0
  90   12:40   46.9    30    4.4   258     12.6   786.7    0.00     601    999.0   13.4
  90   12:50   46.8    27    5.1   257      9.8   786.6    0.00     595    999.0   13.3
  90   13:00   45.6    28    4.5   265      9.6   786.6    0.00     588    999.0   13.2
  90   13:10   46.5    29    3.2   270      9.1   786.5    0.00     579    999.0   13.2
  90   13:20   46.0    28    4.1   284      8.6   786.5    0.00     570    999.0   13.1
  90   13:30   45.3    28    4.8   265     18.1   786.5    0.00     560    999.0   13.1

Return to Alpha graphs page.


Western Regional Climate Center,wrcc@dri.edu